createdAt,value
2018-03-31T06:49:19.936Z,33.80
2018-03-31T06:51:48.674Z,29.70
2018-03-31T06:54:19.391Z,29.83
2018-03-31T06:56:49.102Z,38.60
2018-03-31T06:59:17.952Z,41.97
2018-03-31T07:01:46.919Z,40.43
2018-03-31T07:04:16.751Z,36.43
2018-03-31T07:06:46.274Z,37.27
2018-03-31T07:09:15.449Z,37.13
2018-03-31T07:11:44.949Z,32.90
2018-03-31T07:14:14.917Z,37.78
2018-03-31T07:16:43.861Z,37.50
2018-03-31T07:19:13.033Z,35.43
2018-03-31T07:21:42.098Z,32.70
2018-03-31T07:24:11.014Z,39.03
2018-03-31T07:26:39.962Z,37.40
2018-03-31T07:29:08.853Z,38.00
2018-03-31T07:31:37.834Z,40.80
2018-03-31T07:34:06.777Z,42.30
2018-03-31T07:36:35.535Z,40.47
2018-03-31T07:39:04.737Z,42.37
2018-03-31T07:41:34.027Z,38.53
2018-03-31T07:44:03.457Z,38.47
2018-03-31T07:46:32.846Z,34.40
2018-03-31T07:49:01.844Z,37.37
2018-03-31T07:51:30.583Z,39.07
2018-03-31T07:53:59.728Z,42.83
2018-03-31T07:56:28.716Z,35.07
2018-03-31T07:58:57.562Z,45.20
2018-03-31T08:01:27.546Z,36.90
2018-03-31T08:03:57.310Z,35.43
2018-03-31T08:06:26.318Z,36.43
2018-03-31T08:08:55.304Z,37.87
2018-03-31T08:11:24.396Z,38.10
2018-03-31T08:13:53.624Z,41.10
2018-03-31T08:16:23.917Z,35.00
2018-03-31T08:18:52.980Z,39.43
2018-03-31T08:21:22.744Z,38.10
2018-03-31T08:23:51.557Z,35.00
2018-03-31T08:26:20.326Z,43.83
2018-03-31T08:28:49.612Z,41.63
2018-03-31T08:31:18.754Z,39.63
2018-03-31T08:33:48.516Z,47.40
2018-03-31T08:36:17.502Z,43.17
2018-03-31T08:38:46.820Z,44.27
2018-03-31T08:41:15.573Z,43.00
2018-03-31T08:43:45.711Z,43.20
2018-03-31T08:46:14.780Z,41.97
2018-03-31T08:48:43.777Z,46.43
2018-03-31T08:51:12.824Z,42.83
2018-03-31T08:53:41.670Z,41.37
2018-03-31T08:56:10.447Z,47.53
2018-03-31T08:58:39.983Z,44.93
2018-03-31T09:01:09.111Z,42.67
2018-03-31T09:03:38.757Z,41.30
2018-03-31T09:06:08.868Z,44.67
2018-03-31T09:08:37.616Z,42.30
2018-03-31T09:11:06.540Z,42.50
2018-03-31T09:13:36.128Z,47.63
2018-03-31T09:16:05.030Z,45.97
2018-03-31T09:18:34.009Z,43.20
2018-03-31T09:21:03.085Z,48.17
2018-03-31T09:23:31.801Z,44.90
2018-03-31T09:26:00.717Z,46.37
2018-03-31T09:28:31.241Z,54.20
2018-03-31T09:31:00.896Z,44.93
2018-03-31T09:33:31.281Z,42.60
2018-03-31T09:36:01.339Z,43.97
2018-03-31T09:38:30.784Z,43.63
2018-03-31T09:40:59.659Z,38.30
2018-03-31T09:43:28.560Z,42.03
2018-03-31T09:45:57.732Z,40.17
2018-03-31T09:48:26.556Z,42.63
2018-03-31T09:50:56.829Z,46.23
2018-03-31T09:53:25.922Z,45.47
2018-03-31T09:55:55.059Z,45.97
2018-03-31T09:58:24.184Z,44.23
2018-03-31T10:01:10.359Z,43.90
2018-03-31T10:03:39.815Z,44.93
2018-03-31T10:06:09.154Z,44.70
2018-03-31T10:08:38.201Z,43.43
2018-03-31T10:11:07.275Z,42.73
2018-03-31T10:13:36.844Z,45.47
2018-03-31T10:16:05.884Z,47.80
2018-03-31T10:18:35.505Z,44.73
2018-03-31T10:21:04.355Z,52.03
2018-03-31T10:23:33.263Z,47.77
2018-03-31T10:26:03.246Z,45.00
2018-03-31T10:28:32.180Z,46.00
2018-03-31T10:31:01.828Z,42.17
2018-03-31T10:33:31.823Z,46.83
2018-03-31T10:36:00.682Z,41.00
2018-03-31T10:38:31.114Z,42.40
2018-03-31T10:41:01.190Z,45.27
2018-03-31T10:43:31.167Z,46.47
2018-03-31T10:46:00.684Z,42.43
2018-03-31T10:48:29.471Z,45.33
2018-03-31T10:50:58.616Z,42.40
2018-03-31T10:53:27.471Z,45.70
2018-03-31T10:55:56.463Z,48.93
2018-03-31T10:58:25.440Z,53.80
2018-03-31T11:00:54.762Z,46.07
2018-03-31T11:03:23.652Z,51.03
2018-03-31T11:05:52.665Z,42.90
2018-03-31T11:08:21.564Z,44.00
2018-03-31T11:10:50.320Z,46.90
2018-03-31T11:13:19.088Z,42.73
2018-03-31T11:15:48.038Z,43.77
2018-03-31T11:18:16.867Z,37.33
2018-03-31T11:20:45.501Z,47.87
2018-03-31T11:23:14.470Z,45.93
2018-03-31T11:25:43.545Z,45.83
2018-03-31T11:28:12.444Z,45.33
2018-03-31T11:30:41.697Z,47.10
2018-03-31T11:33:11.758Z,52.20
2018-03-31T11:35:41.752Z,48.90
2018-03-31T11:38:11.502Z,52.73
2018-03-31T11:40:40.283Z,53.10
2018-03-31T11:43:09.492Z,55.17
2018-03-31T11:45:38.587Z,56.00
2018-03-31T11:48:07.500Z,56.17
2018-03-31T11:50:36.377Z,64.73
2018-03-31T11:53:05.574Z,57.97
2018-03-31T11:55:34.515Z,55.20
2018-03-31T11:58:04.229Z,70.47
2018-03-31T12:00:34.154Z,76.33
2018-03-31T12:03:03.143Z,75.87
2018-03-31T12:05:31.897Z,65.23
2018-03-31T12:08:01.060Z,70.07
2018-03-31T12:10:31.504Z,65.03
2018-03-31T12:13:00.567Z,68.70
2018-03-31T12:15:29.453Z,63.40
2018-03-31T12:17:58.368Z,56.20
2018-03-31T12:20:27.464Z,53.63
2018-03-31T12:22:56.170Z,55.27
2018-03-31T12:25:25.191Z,67.03
2018-03-31T12:27:54.847Z,69.10
2018-03-31T12:30:23.616Z,60.60
2018-03-31T12:32:53.332Z,64.73
2018-03-31T12:35:22.342Z,197.50
2018-03-31T12:37:51.732Z,504.70
2018-03-31T12:40:20.942Z,84.30
2018-03-31T12:42:50.160Z,187.97
2018-03-31T12:45:19.248Z,184.40
2018-03-31T12:47:48.168Z,84.57
2018-03-31T12:50:18.160Z,143.53
2018-03-31T12:52:47.046Z,87.27
2018-03-31T12:55:16.227Z,260.80
2018-03-31T12:57:45.156Z,282.60
2018-03-31T13:00:14.272Z,208.60
2018-03-31T13:02:43.338Z,94.20
2018-03-31T13:05:12.162Z,112.10
2018-03-31T13:07:41.732Z,203.40
2018-03-31T13:10:10.601Z,111.00
2018-03-31T13:12:39.567Z,101.40
2018-03-31T13:15:08.845Z,80.40
2018-03-31T13:17:38.571Z,97.40
2018-03-31T13:20:07.678Z,91.97
2018-03-31T13:22:36.587Z,78.47
2018-03-31T13:25:05.422Z,70.30
2018-03-31T13:27:34.138Z,73.63
2018-03-31T13:30:03.390Z,79.73
2018-03-31T13:32:32.148Z,82.83
2018-03-31T13:35:01.157Z,72.50
2018-03-31T13:37:31.885Z,67.97
2018-03-31T13:40:00.970Z,73.33
2018-03-31T13:42:30.058Z,87.17
2018-03-31T13:44:58.877Z,93.10
2018-03-31T13:47:27.984Z,79.30
2018-03-31T13:49:57.089Z,83.90
2018-03-31T13:52:26.728Z,92.77
2018-03-31T13:54:55.447Z,95.77
2018-03-31T13:57:24.359Z,95.40
2018-03-31T13:59:53.557Z,76.20
2018-03-31T14:02:22.610Z,72.77
2018-03-31T14:04:51.641Z,72.90
2018-03-31T14:07:20.876Z,80.80
2018-03-31T14:09:50.747Z,80.83
2018-03-31T14:12:19.780Z,84.13
2018-03-31T14:14:49.512Z,71.37
2018-03-31T14:17:18.531Z,58.27
2018-03-31T14:19:47.437Z,59.37
2018-03-31T14:22:16.419Z,64.17
2018-03-31T14:24:45.338Z,58.17
2018-03-31T14:27:14.279Z,54.47
2018-03-31T14:29:44.457Z,46.00
2018-03-31T14:32:14.253Z,47.43
2018-03-31T14:34:44.021Z,47.00
2018-03-31T14:37:12.946Z,48.77
2018-03-31T14:39:41.896Z,43.20
2018-03-31T14:42:10.637Z,43.80
2018-03-31T14:44:39.583Z,43.20
2018-03-31T14:47:08.761Z,46.03
2018-03-31T14:49:38.254Z,44.38
2018-03-31T14:52:07.350Z,43.60
2018-03-31T14:54:36.378Z,41.77
2018-03-31T14:57:05.276Z,41.83
2018-03-31T14:59:33.973Z,46.30
2018-03-31T15:02:03.535Z,45.33
2018-03-31T15:04:33.504Z,43.53
2018-03-31T15:07:02.715Z,51.77
2018-03-31T15:09:32.544Z,49.10
2018-03-31T15:12:01.537Z,49.67
2018-03-31T15:14:31.286Z,48.10
2018-03-31T15:17:00.437Z,47.40
2018-03-31T15:19:31.185Z,49.13
2018-03-31T15:22:00.127Z,48.43
2018-03-31T15:24:29.752Z,50.03
2018-03-31T15:26:59.557Z,57.40
2018-03-31T15:29:28.681Z,55.67
2018-03-31T15:31:57.647Z,56.20
2018-03-31T15:34:26.602Z,55.57
2018-03-31T15:36:56.351Z,57.27
2018-03-31T15:39:25.295Z,56.90
2018-03-31T15:41:55.151Z,86.53
2018-03-31T15:44:24.343Z,73.87
2018-03-31T15:46:53.538Z,63.73
2018-03-31T15:49:22.702Z,101.67
2018-03-31T15:51:52.611Z,68.10
2018-03-31T15:54:21.587Z,70.40
2018-03-31T15:56:50.581Z,62.13
2018-03-31T15:59:19.852Z,56.90
2018-03-31T16:01:48.687Z,63.23
2018-03-31T16:04:18.691Z,59.57
2018-03-31T16:06:48.220Z,61.40
2018-03-31T16:09:17.697Z,57.00
2018-03-31T16:11:46.549Z,60.80
2018-03-31T16:14:15.440Z,61.97
2018-03-31T16:16:44.178Z,64.17
2018-03-31T16:19:13.020Z,58.83
2018-03-31T16:23:46.673Z,9.30
2018-03-31T16:26:15.778Z,12.37
2018-03-31T16:29:38.682Z,62.20
2018-03-31T16:32:07.912Z,63.10
2018-03-31T16:34:36.778Z,67.30
2018-03-31T16:37:05.750Z,63.33
2018-03-31T16:39:34.801Z,67.27
2018-03-31T16:42:03.524Z,68.20
2018-03-31T16:44:33.157Z,67.40
2018-03-31T16:47:02.271Z,67.03
2018-03-31T16:49:32.133Z,78.40
2018-03-31T16:52:01.912Z,72.20
2018-03-31T16:54:31.934Z,73.57
2018-03-31T16:57:01.231Z,78.43
2018-03-31T16:59:30.205Z,73.17
2018-03-31T17:01:59.483Z,75.30
2018-03-31T17:04:29.466Z,83.47
2018-03-31T17:06:59.251Z,89.60
2018-03-31T17:09:28.305Z,85.63
2018-03-31T17:11:57.758Z,88.07
2018-03-31T17:14:27.707Z,89.63
2018-03-31T17:16:56.841Z,84.07
2018-03-31T17:19:26.065Z,89.23
2018-03-31T17:21:56.054Z,89.00
2018-03-31T17:24:25.071Z,88.43
2018-03-31T17:26:54.113Z,81.83
2018-03-31T17:29:24.196Z,86.27
2018-03-31T17:31:54.285Z,88.97
2018-03-31T17:34:23.451Z,88.83
2018-03-31T17:36:52.775Z,75.63
2018-03-31T17:39:22.807Z,82.40
2018-03-31T17:41:52.077Z,86.20
2018-03-31T17:44:21.108Z,77.67
2018-03-31T17:46:51.151Z,74.73
2018-03-31T17:49:20.846Z,77.37
2018-03-31T17:51:49.719Z,78.97
2018-03-31T17:54:18.817Z,76.00
2018-03-31T17:56:48.298Z,80.87
2018-03-31T17:59:17.112Z,82.73
2018-03-31T18:01:46.333Z,82.03
2018-03-31T18:04:16.011Z,79.33
2018-03-31T18:06:46.231Z,83.68
2018-03-31T18:09:15.241Z,76.50
2018-03-31T18:11:44.635Z,78.10
2018-03-31T18:14:13.595Z,78.13
2018-03-31T18:16:42.872Z,71.10
2018-03-31T18:19:12.570Z,81.73
2018-03-31T18:21:41.730Z,75.80
2018-03-31T18:24:11.005Z,75.33
2018-03-31T18:26:40.533Z,70.97
2018-03-31T18:29:09.626Z,74.00
2018-03-31T18:31:38.464Z,73.80
2018-03-31T18:34:08.291Z,72.93
2018-03-31T18:36:37.409Z,67.50
2018-03-31T18:39:06.546Z,68.30
2018-03-31T18:41:35.700Z,74.67
2018-03-31T18:44:04.604Z,75.17
2018-03-31T18:46:33.825Z,72.03
2018-03-31T18:49:03.611Z,71.87
2018-03-31T18:51:33.720Z,75.20
2018-03-31T18:54:02.764Z,67.83
2018-03-31T18:56:32.697Z,72.00
2018-03-31T18:59:03.200Z,68.53
2018-03-31T19:01:33.119Z,69.13
2018-03-31T19:04:02.693Z,68.53
2018-03-31T19:06:31.891Z,66.57
2018-03-31T19:09:00.773Z,61.87
2018-03-31T19:11:30.619Z,61.90
2018-03-31T19:14:00.235Z,58.13
2018-03-31T19:16:34.184Z,52.83
2018-03-31T19:19:02.970Z,55.00
2018-03-31T19:21:31.998Z,58.03
2018-03-31T19:24:01.979Z,59.67
2018-03-31T19:26:31.694Z,52.07
2018-03-31T19:29:00.842Z,57.13
2018-03-31T19:31:29.779Z,53.93
2018-03-31T19:33:58.821Z,53.17
2018-03-31T19:36:27.920Z,55.63
2018-03-31T19:38:57.298Z,53.57
2018-03-31T19:41:26.273Z,54.87
2018-03-31T19:43:55.238Z,56.23
2018-03-31T19:46:24.147Z,53.63
2018-03-31T19:48:53.148Z,55.40
2018-03-31T19:51:22.436Z,52.70
2018-03-31T19:53:51.257Z,51.77
2018-03-31T19:56:20.211Z,54.93
2018-03-31T19:58:49.771Z,49.30
2018-03-31T20:01:18.649Z,47.93
2018-03-31T20:03:47.757Z,46.05
2018-03-31T20:06:51.619Z,16.00
2018-03-31T20:07:06.081Z,46.08
2018-03-31T20:07:21.082Z,47.28
2018-03-31T20:07:36.386Z,47.90
2018-03-31T20:07:51.065Z,47.13
2018-03-31T20:08:05.542Z,47.45
2018-03-31T20:08:19.897Z,47.58
2018-03-31T20:08:34.936Z,46.24
2018-03-31T20:08:49.411Z,45.12
2018-03-31T20:09:05.403Z,45.40
2018-03-31T20:09:20.924Z,48.70
2018-03-31T20:09:39.066Z,48.10
2018-03-31T20:09:54.317Z,45.28
2018-03-31T20:10:09.069Z,44.03
2018-03-31T20:10:23.451Z,43.97
2018-03-31T20:10:37.940Z,46.30
2018-03-31T20:10:52.499Z,46.65
2018-03-31T20:11:07.023Z,44.88
2018-03-31T20:11:21.455Z,44.22
2018-03-31T20:11:35.755Z,43.85
2018-03-31T20:11:51.295Z,42.95
2018-03-31T20:12:06.527Z,41.92
2018-03-31T20:14:57.703Z,45.27
2018-03-31T20:17:28.058Z,40.70
2018-03-31T20:19:58.227Z,37.53
2018-03-31T20:22:27.987Z,38.47
2018-03-31T20:24:57.593Z,37.13
2018-03-31T20:27:27.745Z,34.67
2018-03-31T20:29:57.445Z,35.07
2018-03-31T20:32:27.210Z,39.50
2018-03-31T20:34:57.081Z,36.13
2018-03-31T20:37:26.821Z,32.73
2018-03-31T20:39:56.432Z,40.03
2018-03-31T20:42:26.042Z,39.47
2018-03-31T20:44:55.864Z,38.67
2018-03-31T20:47:25.393Z,33.90
2018-03-31T20:50:19.296Z,38.63
2018-03-31T20:52:49.212Z,42.70
2018-03-31T20:55:19.216Z,41.13
2018-03-31T20:57:48.995Z,37.17
2018-03-31T21:00:19.014Z,35.07
2018-03-31T21:02:49.061Z,31.40
2018-03-31T21:05:19.215Z,40.30
2018-03-31T21:07:48.994Z,33.03
2018-03-31T21:10:18.837Z,32.27
2018-03-31T21:12:48.702Z,36.60
2018-03-31T21:15:19.768Z,32.23
2018-03-31T21:17:49.652Z,29.97
2018-03-31T21:20:19.627Z,34.30
2018-03-31T21:22:50.166Z,30.13
2018-03-31T21:25:21.046Z,25.37
2018-03-31T21:27:51.050Z,30.37
2018-03-31T21:30:22.014Z,31.80
2018-03-31T21:32:51.930Z,28.97
2018-03-31T21:35:22.057Z,27.23
2018-03-31T21:37:51.913Z,26.93
2018-03-31T21:40:22.686Z,28.00
2018-03-31T21:42:54.282Z,27.43
2018-03-31T21:45:24.045Z,25.77
2018-03-31T21:47:53.708Z,20.97
2018-03-31T21:50:23.438Z,27.47
2018-03-31T21:52:53.314Z,26.63
2018-03-31T21:55:23.052Z,27.77
2018-03-31T21:57:54.511Z,24.63
2018-03-31T22:00:24.734Z,26.70
2018-03-31T22:02:55.055Z,23.47
2018-03-31T22:05:25.172Z,25.73
2018-03-31T22:07:54.697Z,58.73
2018-03-31T22:10:24.662Z,38.90
2018-03-31T22:12:54.892Z,29.47
2018-03-31T22:15:29.986Z,30.37
2018-03-31T22:18:00.126Z,29.10
2018-03-31T22:20:29.980Z,26.60
2018-03-31T22:23:00.553Z,29.43
2018-03-31T22:25:30.630Z,20.60
2018-03-31T22:28:00.491Z,25.77
2018-03-31T22:30:30.542Z,27.10
2018-03-31T22:33:01.268Z,24.47
2018-03-31T22:35:32.017Z,24.70
2018-03-31T22:38:02.823Z,21.30
2018-03-31T22:40:32.938Z,25.40
2018-03-31T22:43:03.014Z,21.83
2018-03-31T22:45:32.950Z,26.70
2018-03-31T22:48:03.826Z,22.17
2018-03-31T22:50:34.060Z,22.87
2018-03-31T22:53:04.142Z,21.50
2018-03-31T22:55:34.824Z,23.03
2018-03-31T22:58:06.188Z,18.95
2018-03-31T23:00:37.207Z,22.37
2018-03-31T23:03:07.760Z,21.77
2018-03-31T23:05:39.619Z,22.00
2018-03-31T23:08:10.029Z,23.10
2018-03-31T23:10:40.100Z,23.97
2018-03-31T23:13:11.363Z,24.13
2018-03-31T23:15:41.505Z,27.03
2018-03-31T23:18:11.715Z,23.77
2018-03-31T23:20:43.302Z,22.43
2018-03-31T23:23:14.020Z,48.87
2018-03-31T23:25:44.764Z,21.97
2018-03-31T23:28:15.342Z,21.00
2018-03-31T23:30:46.340Z,22.67
2018-03-31T23:33:17.023Z,20.13
2018-03-31T23:35:46.803Z,18.00
2018-03-31T23:38:17.056Z,17.37
2018-03-31T23:40:47.932Z,19.30
2018-03-31T23:43:18.166Z,20.07
2018-03-31T23:45:48.221Z,22.17
2018-03-31T23:48:18.442Z,22.83
2018-03-31T23:50:49.696Z,19.63
2018-03-31T23:53:19.615Z,20.60
2018-03-31T23:55:49.432Z,19.90
2018-03-31T23:58:19.366Z,17.03
